sensor_id;sensor_type;location;lat;lon;timestamp;P1;durP1;ratioP1;P2;durP2;ratioP2
13325;SDS011;6732;51.044;3.746;2022-12-16T00:01:39;28.50;;;24.07;;
13325;SDS011;6732;51.044;3.746;2022-12-16T00:04:05;30.23;;;23.60;;
13325;SDS011;6732;51.044;3.746;2022-12-16T00:06:31;28.13;;;24.17;;
13325;SDS011;6732;51.044;3.746;2022-12-16T00:08:58;27.97;;;23.50;;
13325;SDS011;6732;51.044;3.746;2022-12-16T00:11:25;25.57;;;22.80;;
13325;SDS011;6732;51.044;3.746;2022-12-16T00:13:51;29.60;;;24.23;;
13325;SDS011;6732;51.044;3.746;2022-12-16T00:16:18;26.83;;;22.30;;
13325;SDS011;6732;51.044;3.746;2022-12-16T00:18:45;25.33;;;22.53;;
13325;SDS011;6732;51.044;3.746;2022-12-16T00:21:11;27.40;;;23.20;;
13325;SDS011;6732;51.044;3.746;2022-12-16T00:23:38;25.20;;;22.03;;
13325;SDS011;6732;51.044;3.746;2022-12-16T00:26:06;27.77;;;21.17;;
13325;SDS011;6732;51.044;3.746;2022-12-16T00:28:32;26.80;;;22.67;;
13325;SDS011;6732;51.044;3.746;2022-12-16T00:30:58;25.33;;;22.00;;
13325;SDS011;6732;51.044;3.746;2022-12-16T00:33:25;26.93;;;22.57;;
13325;SDS011;6732;51.044;3.746;2022-12-16T00:35:52;29.13;;;22.40;;
13325;SDS011;6732;51.044;3.746;2022-12-16T00:38:19;28.93;;;23.43;;
13325;SDS011;6732;51.044;3.746;2022-12-16T00:40:46;28.73;;;23.90;;
13325;SDS011;6732;51.044;3.746;2022-12-16T00:43:12;28.63;;;23.33;;
13325;SDS011;6732;51.044;3.746;2022-12-16T00:45:38;25.93;;;22.80;;
13325;SDS011;6732;51.044;3.746;2022-12-16T00:48:04;27.13;;;22.83;;
13325;SDS011;6732;51.044;3.746;2022-12-16T00:50:30;25.47;;;22.77;;
13325;SDS011;6732;51.044;3.746;2022-12-16T00:52:56;29.17;;;22.37;;
13325;SDS011;6732;51.044;3.746;2022-12-16T00:55:22;27.73;;;22.93;;
13325;SDS011;6732;51.044;3.746;2022-12-16T00:57:48;27.07;;;22.17;;
13325;SDS011;6732;51.044;3.746;2022-12-16T01:00:14;27.80;;;23.53;;
13325;SDS011;6732;51.044;3.746;2022-12-16T01:02:45;32.23;;;23.97;;
13325;SDS011;6732;51.044;3.746;2022-12-16T01:05:13;27.47;;;23.67;;
13325;SDS011;6732;51.044;3.746;2022-12-16T01:07:42;29.77;;;23.87;;
13325;SDS011;6732;51.044;3.746;2022-12-16T01:10:08;26.57;;;22.57;;
13325;SDS011;6732;51.044;3.746;2022-12-16T01:12:35;25.00;;;20.33;;
13325;SDS011;6732;51.044;3.746;2022-12-16T01:15:02;25.90;;;20.37;;
13325;SDS011;6732;51.044;3.746;2022-12-16T01:17:29;23.13;;;19.00;;
13325;SDS011;6732;51.044;3.746;2022-12-16T01:19:55;22.40;;;17.97;;
13325;SDS011;6732;51.044;3.746;2022-12-16T01:22:21;20.10;;;16.90;;
13325;SDS011;6732;51.044;3.746;2022-12-16T01:24:47;20.20;;;16.23;;
13325;SDS011;6732;51.044;3.746;2022-12-16T01:27:13;18.77;;;16.03;;
13325;SDS011;6732;51.044;3.746;2022-12-16T01:29:40;19.80;;;15.30;;
13325;SDS011;6732;51.044;3.746;2022-12-16T01:32:08;18.10;;;15.53;;
13325;SDS011;6732;51.044;3.746;2022-12-16T01:34:37;17.20;;;14.70;;
13325;SDS011;6732;51.044;3.746;2022-12-16T01:37:03;18.23;;;14.97;;
13325;SDS011;6732;51.044;3.746;2022-12-16T01:39:28;17.63;;;14.43;;
13325;SDS011;6732;51.044;3.746;2022-12-16T01:41:55;20.77;;;14.67;;
13325;SDS011;6732;51.044;3.746;2022-12-16T01:44:22;18.67;;;14.23;;
13325;SDS011;6732;51.044;3.746;2022-12-16T01:46:59;18.50;;;14.90;;
13325;SDS011;6732;51.044;3.746;2022-12-16T01:51:56;20.97;;;14.63;;
13325;SDS011;6732;51.044;3.746;2022-12-16T01:54:47;17.77;;;13.87;;
13325;SDS011;6732;51.044;3.746;2022-12-16T01:57:24;20.40;;;14.03;;
13325;SDS011;6732;51.044;3.746;2022-12-16T01:59:54;20.07;;;13.77;;
13325;SDS011;6732;51.044;3.746;2022-12-16T02:02:21;18.03;;;12.70;;
13325;SDS011;6732;51.044;3.746;2022-12-16T02:04:48;16.63;;;13.23;;
13325;SDS011;6732;51.044;3.746;2022-12-16T02:07:33;17.60;;;13.20;;
13325;SDS011;6732;51.044;3.746;2022-12-16T02:09:59;18.40;;;13.07;;
13325;SDS011;6732;51.044;3.746;2022-12-16T02:12:28;18.07;;;13.30;;
13325;SDS011;6732;51.044;3.746;2022-12-16T02:15:07;18.67;;;12.77;;
13325;SDS011;6732;51.044;3.746;2022-12-16T02:17:54;19.47;;;12.83;;
13325;SDS011;6732;51.044;3.746;2022-12-16T02:23:34;16.87;;;11.50;;
13325;SDS011;6732;51.044;3.746;2022-12-16T02:31:32;15.80;;;8.80;;
13325;SDS011;6732;51.044;3.746;2022-12-16T02:34:09;11.20;;;8.50;;
13325;SDS011;6732;51.044;3.746;2022-12-16T02:36:47;13.30;;;7.87;;
13325;SDS011;6732;51.044;3.746;2022-12-16T02:39:34;11.27;;;7.40;;
13325;SDS011;6732;51.044;3.746;2022-12-16T02:42:10;9.07;;;6.87;;
13325;SDS011;6732;51.044;3.746;2022-12-16T02:47:19;10.17;;;5.73;;
13325;SDS011;6732;51.044;3.746;2022-12-16T02:49:46;7.97;;;5.07;;
13325;SDS011;6732;51.044;3.746;2022-12-16T02:52:14;7.30;;;4.97;;
13325;SDS011;6732;51.044;3.746;2022-12-16T02:54:44;7.97;;;5.30;;
13325;SDS011;6732;51.044;3.746;2022-12-16T02:57:15;7.03;;;4.70;;
13325;SDS011;6732;51.044;3.746;2022-12-16T02:59:54;9.23;;;5.63;;
13325;SDS011;6732;51.044;3.746;2022-12-16T03:05:33;11.67;;;6.47;;
13325;SDS011;6732;51.044;3.746;2022-12-16T03:08:06;12.07;;;7.00;;
13325;SDS011;6732;51.044;3.746;2022-12-16T03:10:38;9.27;;;6.77;;
13325;SDS011;6732;51.044;3.746;2022-12-16T03:13:08;9.47;;;6.70;;
13325;SDS011;6732;51.044;3.746;2022-12-16T03:15:35;10.97;;;6.37;;
13325;SDS011;6732;51.044;3.746;2022-12-16T03:18:04;7.57;;;5.37;;
13325;SDS011;6732;51.044;3.746;2022-12-16T03:20:44;10.23;;;5.07;;
13325;SDS011;6732;51.044;3.746;2022-12-16T03:23:27;6.93;;;4.00;;
13325;SDS011;6732;51.044;3.746;2022-12-16T03:26:08;6.00;;;3.90;;
13325;SDS011;6732;51.044;3.746;2022-12-16T03:28:58;5.27;;;3.77;;
13325;SDS011;6732;51.044;3.746;2022-12-16T03:37:01;9.03;;;3.27;;
13325;SDS011;6732;51.044;3.746;2022-12-16T03:39:30;5.57;;;2.97;;
13325;SDS011;6732;51.044;3.746;2022-12-16T03:42:02;3.70;;;3.00;;
13325;SDS011;6732;51.044;3.746;2022-12-16T03:44:29;3.17;;;2.87;;
13325;SDS011;6732;51.044;3.746;2022-12-16T03:46:57;6.33;;;3.10;;
13325;SDS011;6732;51.044;3.746;2022-12-16T03:49:23;3.90;;;3.33;;
13325;SDS011;6732;51.044;3.746;2022-12-16T03:51:50;4.20;;;2.90;;
13325;SDS011;6732;51.044;3.746;2022-12-16T03:54:18;4.43;;;3.00;;
13325;SDS011;6732;51.044;3.746;2022-12-16T03:56:44;4.47;;;2.90;;
13325;SDS011;6732;51.044;3.746;2022-12-16T03:59:10;6.43;;;3.20;;
13325;SDS011;6732;51.044;3.746;2022-12-16T04:01:36;6.63;;;3.03;;
13325;SDS011;6732;51.044;3.746;2022-12-16T04:04:02;3.47;;;2.77;;
13325;SDS011;6732;51.044;3.746;2022-12-16T04:06:28;4.40;;;3.03;;
13325;SDS011;6732;51.044;3.746;2022-12-16T04:08:54;3.50;;;2.57;;
13325;SDS011;6732;51.044;3.746;2022-12-16T04:11:20;4.50;;;3.23;;
13325;SDS011;6732;51.044;3.746;2022-12-16T04:14:06;4.07;;;3.10;;
13325;SDS011;6732;51.044;3.746;2022-12-16T04:16:51;5.60;;;3.00;;
13325;SDS011;6732;51.044;3.746;2022-12-16T04:19:37;5.23;;;2.93;;
13325;SDS011;6732;51.044;3.746;2022-12-16T04:22:23;5.57;;;3.07;;
13325;SDS011;6732;51.044;3.746;2022-12-16T04:25:17;3.50;;;3.20;;
13325;SDS011;6732;51.044;3.746;2022-12-16T04:28:05;5.10;;;3.30;;
13325;SDS011;6732;51.044;3.746;2022-12-16T04:30:31;4.43;;;3.30;;
13325;SDS011;6732;51.044;3.746;2022-12-16T04:33:07;4.97;;;3.30;;
13325;SDS011;6732;51.044;3.746;2022-12-16T04:35:53;4.50;;;3.50;;
13325;SDS011;6732;51.044;3.746;2022-12-16T04:38:38;6.87;;;3.67;;
13325;SDS011;6732;51.044;3.746;2022-12-16T04:41:22;5.23;;;4.00;;
13325;SDS011;6732;51.044;3.746;2022-12-16T04:44:07;4.90;;;3.73;;
13325;SDS011;6732;51.044;3.746;2022-12-16T04:46:51;4.33;;;3.60;;
13325;SDS011;6732;51.044;3.746;2022-12-16T04:49:37;6.27;;;3.67;;
13325;SDS011;6732;51.044;3.746;2022-12-16T04:52:21;5.13;;;3.80;;
13325;SDS011;6732;51.044;3.746;2022-12-16T04:55:07;5.47;;;4.27;;
13325;SDS011;6732;51.044;3.746;2022-12-16T04:57:52;6.63;;;3.70;;
13325;SDS011;6732;51.044;3.746;2022-12-16T05:00:38;6.60;;;4.10;;
13325;SDS011;6732;51.044;3.746;2022-12-16T05:03:24;5.73;;;3.93;;
13325;SDS011;6732;51.044;3.746;2022-12-16T05:06:08;6.53;;;4.10;;
13325;SDS011;6732;51.044;3.746;2022-12-16T05:08:53;5.90;;;4.00;;
13325;SDS011;6732;51.044;3.746;2022-12-16T05:11:37;7.13;;;4.27;;
13325;SDS011;6732;51.044;3.746;2022-12-16T05:14:22;6.13;;;3.90;;
13325;SDS011;6732;51.044;3.746;2022-12-16T05:17:06;5.00;;;4.07;;
13325;SDS011;6732;51.044;3.746;2022-12-16T05:19:51;5.23;;;3.93;;
13325;SDS011;6732;51.044;3.746;2022-12-16T05:22:35;5.20;;;3.87;;
13325;SDS011;6732;51.044;3.746;2022-12-16T05:25:20;4.57;;;3.90;;
13325;SDS011;6732;51.044;3.746;2022-12-16T05:28:04;5.03;;;3.90;;
13325;SDS011;6732;51.044;3.746;2022-12-16T05:30:49;5.20;;;3.70;;
13325;SDS011;6732;51.044;3.746;2022-12-16T05:33:33;5.50;;;3.90;;
13325;SDS011;6732;51.044;3.746;2022-12-16T05:36:18;4.93;;;3.27;;
13325;SDS011;6732;51.044;3.746;2022-12-16T05:39:03;5.30;;;3.57;;
13325;SDS011;6732;51.044;3.746;2022-12-16T05:41:48;5.83;;;4.07;;
13325;SDS011;6732;51.044;3.746;2022-12-16T05:44:32;4.63;;;3.33;;
13325;SDS011;6732;51.044;3.746;2022-12-16T05:47:17;7.97;;;3.97;;
13325;SDS011;6732;51.044;3.746;2022-12-16T05:50:02;6.03;;;3.80;;
13325;SDS011;6732;51.044;3.746;2022-12-16T05:52:48;5.17;;;3.40;;
13325;SDS011;6732;51.044;3.746;2022-12-16T05:55:40;3.50;;;3.03;;
13325;SDS011;6732;51.044;3.746;2022-12-16T05:58:26;6.63;;;3.80;;
13325;SDS011;6732;51.044;3.746;2022-12-16T06:01:12;4.53;;;3.57;;
13325;SDS011;6732;51.044;3.746;2022-12-16T06:03:56;6.63;;;3.37;;
13325;SDS011;6732;51.044;3.746;2022-12-16T06:06:41;4.73;;;3.40;;
13325;SDS011;6732;51.044;3.746;2022-12-16T06:09:26;5.90;;;3.80;;
13325;SDS011;6732;51.044;3.746;2022-12-16T06:12:10;5.20;;;3.70;;
13325;SDS011;6732;51.044;3.746;2022-12-16T06:14:55;5.03;;;3.40;;
13325;SDS011;6732;51.044;3.746;2022-12-16T06:17:46;6.67;;;3.80;;
13325;SDS011;6732;51.044;3.746;2022-12-16T06:20:31;6.53;;;3.73;;
13325;SDS011;6732;51.044;3.746;2022-12-16T06:23:16;8.63;;;5.03;;
13325;SDS011;6732;51.044;3.746;2022-12-16T06:26:01;7.10;;;5.90;;
13325;SDS011;6732;51.044;3.746;2022-12-16T06:28:46;6.07;;;5.00;;
13325;SDS011;6732;51.044;3.746;2022-12-16T06:31:30;5.77;;;4.93;;
13325;SDS011;6732;51.044;3.746;2022-12-16T06:34:15;7.30;;;5.33;;
13325;SDS011;6732;51.044;3.746;2022-12-16T06:36:59;7.17;;;6.47;;
13325;SDS011;6732;51.044;3.746;2022-12-16T06:39:43;7.20;;;6.50;;
13325;SDS011;6732;51.044;3.746;2022-12-16T06:42:27;7.97;;;6.60;;
13325;SDS011;6732;51.044;3.746;2022-12-16T06:45:12;7.73;;;6.73;;
13325;SDS011;6732;51.044;3.746;2022-12-16T06:48:07;6.43;;;5.80;;
13325;SDS011;6732;51.044;3.746;2022-12-16T06:50:53;6.50;;;5.80;;
13325;SDS011;6732;51.044;3.746;2022-12-16T06:53:37;5.73;;;5.13;;
13325;SDS011;6732;51.044;3.746;2022-12-16T06:56:22;6.03;;;5.20;;
13325;SDS011;6732;51.044;3.746;2022-12-16T06:59:07;7.43;;;4.97;;
13325;SDS011;6732;51.044;3.746;2022-12-16T07:01:51;5.83;;;4.90;;
13325;SDS011;6732;51.044;3.746;2022-12-16T07:04:36;10.23;;;4.97;;
13325;SDS011;6732;51.044;3.746;2022-12-16T07:07:20;6.57;;;5.43;;
13325;SDS011;6732;51.044;3.746;2022-12-16T07:10:04;7.37;;;6.30;;
13325;SDS011;6732;51.044;3.746;2022-12-16T07:12:49;7.60;;;6.87;;
13325;SDS011;6732;51.044;3.746;2022-12-16T07:15:33;8.60;;;6.50;;
13325;SDS011;6732;51.044;3.746;2022-12-16T07:18:18;6.97;;;6.03;;
13325;SDS011;6732;51.044;3.746;2022-12-16T07:21:02;7.47;;;6.23;;
13325;SDS011;6732;51.044;3.746;2022-12-16T07:23:47;7.60;;;6.90;;
13325;SDS011;6732;51.044;3.746;2022-12-16T07:26:32;7.30;;;6.43;;
13325;SDS011;6732;51.044;3.746;2022-12-16T07:29:16;7.67;;;6.90;;
13325;SDS011;6732;51.044;3.746;2022-12-16T07:32:01;9.53;;;7.33;;
13325;SDS011;6732;51.044;3.746;2022-12-16T07:34:46;8.97;;;7.50;;
13325;SDS011;6732;51.044;3.746;2022-12-16T07:37:30;8.70;;;7.90;;
13325;SDS011;6732;51.044;3.746;2022-12-16T07:40:15;8.43;;;7.60;;
13325;SDS011;6732;51.044;3.746;2022-12-16T07:43:00;7.97;;;7.17;;
13325;SDS011;6732;51.044;3.746;2022-12-16T07:45:45;7.93;;;7.17;;
13325;SDS011;6732;51.044;3.746;2022-12-16T07:48:29;9.60;;;7.67;;
13325;SDS011;6732;51.044;3.746;2022-12-16T07:51:14;9.00;;;7.37;;
13325;SDS011;6732;51.044;3.746;2022-12-16T07:53:58;8.37;;;7.40;;
13325;SDS011;6732;51.044;3.746;2022-12-16T07:56:42;8.10;;;7.13;;
13325;SDS011;6732;51.044;3.746;2022-12-16T07:59:27;9.93;;;7.97;;
13325;SDS011;6732;51.044;3.746;2022-12-16T08:02:11;11.00;;;8.93;;
13325;SDS011;6732;51.044;3.746;2022-12-16T08:04:55;11.23;;;9.50;;
13325;SDS011;6732;51.044;3.746;2022-12-16T08:07:40;12.73;;;9.00;;
13325;SDS011;6732;51.044;3.746;2022-12-16T08:10:26;10.60;;;9.50;;
13325;SDS011;6732;51.044;3.746;2022-12-16T08:13:10;13.63;;;9.13;;
13325;SDS011;6732;51.044;3.746;2022-12-16T08:15:55;13.37;;;9.30;;
13325;SDS011;6732;51.044;3.746;2022-12-16T08:18:39;13.77;;;9.63;;
13325;SDS011;6732;51.044;3.746;2022-12-16T08:21:23;12.43;;;9.47;;
13325;SDS011;6732;51.044;3.746;2022-12-16T08:24:08;13.37;;;9.63;;
13325;SDS011;6732;51.044;3.746;2022-12-16T08:26:52;10.57;;;8.50;;
13325;SDS011;6732;51.044;3.746;2022-12-16T08:29:44;15.03;;;9.23;;
13325;SDS011;6732;51.044;3.746;2022-12-16T08:32:28;13.80;;;9.67;;
13325;SDS011;6732;51.044;3.746;2022-12-16T08:35:13;13.83;;;9.13;;
13325;SDS011;6732;51.044;3.746;2022-12-16T08:37:57;16.83;;;9.07;;
13325;SDS011;6732;51.044;3.746;2022-12-16T08:40:42;11.37;;;8.77;;
13325;SDS011;6732;51.044;3.746;2022-12-16T08:43:31;14.30;;;8.73;;
13325;SDS011;6732;51.044;3.746;2022-12-16T08:46:17;12.40;;;7.90;;
13325;SDS011;6732;51.044;3.746;2022-12-16T08:49:02;15.53;;;8.70;;
13325;SDS011;6732;51.044;3.746;2022-12-16T08:51:46;14.77;;;8.10;;
13325;SDS011;6732;51.044;3.746;2022-12-16T08:54:31;17.17;;;8.53;;
13325;SDS011;6732;51.044;3.746;2022-12-16T08:57:16;14.17;;;8.47;;
13325;SDS011;6732;51.044;3.746;2022-12-16T09:00:00;14.57;;;8.70;;
13325;SDS011;6732;51.044;3.746;2022-12-16T09:02:46;12.10;;;8.50;;
13325;SDS011;6732;51.044;3.746;2022-12-16T09:05:30;10.50;;;8.30;;
13325;SDS011;6732;51.044;3.746;2022-12-16T09:08:19;13.33;;;8.33;;
13325;SDS011;6732;51.044;3.746;2022-12-16T09:11:04;12.63;;;8.10;;
13325;SDS011;6732;51.044;3.746;2022-12-16T09:13:48;14.40;;;8.10;;
13325;SDS011;6732;51.044;3.746;2022-12-16T09:16:33;11.37;;;8.37;;
13325;SDS011;6732;51.044;3.746;2022-12-16T09:19:17;12.93;;;8.10;;
13325;SDS011;6732;51.044;3.746;2022-12-16T09:22:01;14.67;;;8.47;;
13325;SDS011;6732;51.044;3.746;2022-12-16T09:24:46;11.63;;;8.37;;
13325;SDS011;6732;51.044;3.746;2022-12-16T09:27:31;14.60;;;7.90;;
13325;SDS011;6732;51.044;3.746;2022-12-16T09:30:23;14.20;;;7.80;;
13325;SDS011;6732;51.044;3.746;2022-12-16T09:33:07;13.30;;;7.90;;
13325;SDS011;6732;51.044;3.746;2022-12-16T09:35:52;12.97;;;7.80;;
13325;SDS011;6732;51.044;3.746;2022-12-16T09:38:37;18.03;;;7.93;;
13325;SDS011;6732;51.044;3.746;2022-12-16T09:41:25;11.23;;;7.70;;
13325;SDS011;6732;51.044;3.746;2022-12-16T09:47:39;11.93;;;7.20;;
13325;SDS011;6732;51.044;3.746;2022-12-16T09:50:27;13.63;;;7.90;;
13325;SDS011;6732;51.044;3.746;2022-12-16T09:53:14;12.90;;;8.17;;
13325;SDS011;6732;51.044;3.746;2022-12-16T09:56:03;9.27;;;6.90;;
13325;SDS011;6732;51.044;3.746;2022-12-16T09:58:54;10.50;;;8.50;;
13325;SDS011;6732;51.044;3.746;2022-12-16T10:01:42;10.23;;;8.13;;
13325;SDS011;6732;51.044;3.746;2022-12-16T10:04:27;12.63;;;8.47;;
13325;SDS011;6732;51.044;3.746;2022-12-16T10:07:16;11.73;;;8.07;;
13325;SDS011;6732;51.044;3.746;2022-12-16T10:13:12;14.40;;;8.70;;
13325;SDS011;6732;51.044;3.746;2022-12-16T10:19:29;13.60;;;9.27;;
13325;SDS011;6732;51.044;3.746;2022-12-16T10:22:49;12.27;;;9.13;;
13325;SDS011;6732;51.044;3.746;2022-12-16T10:25:47;14.53;;;9.63;;
13325;SDS011;6732;51.044;3.746;2022-12-16T10:28:44;16.30;;;10.73;;
13325;SDS011;6732;51.044;3.746;2022-12-16T10:31:41;12.73;;;9.97;;
13325;SDS011;6732;51.044;3.746;2022-12-16T10:34:30;12.40;;;10.73;;
13325;SDS011;6732;51.044;3.746;2022-12-16T10:37:27;14.10;;;10.83;;
13325;SDS011;6732;51.044;3.746;2022-12-16T10:40:20;18.23;;;11.00;;
13325;SDS011;6732;51.044;3.746;2022-12-16T10:43:15;15.90;;;11.40;;
13325;SDS011;6732;51.044;3.746;2022-12-16T10:46:05;18.07;;;12.00;;
13325;SDS011;6732;51.044;3.746;2022-12-16T10:49:07;16.53;;;11.00;;
13325;SDS011;6732;51.044;3.746;2022-12-16T10:51:56;17.07;;;11.70;;
13325;SDS011;6732;51.044;3.746;2022-12-16T10:58:19;14.87;;;11.17;;
13325;SDS011;6732;51.044;3.746;2022-12-16T11:01:19;18.27;;;12.43;;
13325;SDS011;6732;51.044;3.746;2022-12-16T11:04:27;16.50;;;12.77;;
13325;SDS011;6732;51.044;3.746;2022-12-16T11:18:57;12.67;;;7.60;;
13325;SDS011;6732;51.044;3.746;2022-12-16T11:21:42;10.17;;;7.43;;
13325;SDS011;6732;51.044;3.746;2022-12-16T11:24:28;10.93;;;7.70;;
13325;SDS011;6732;51.044;3.746;2022-12-16T11:30:12;11.10;;;7.10;;
13325;SDS011;6732;51.044;3.746;2022-12-16T11:33:02;9.27;;;6.53;;
13325;SDS011;6732;51.044;3.746;2022-12-16T11:36:18;10.90;;;6.90;;
13325;SDS011;6732;51.044;3.746;2022-12-16T11:39:06;9.13;;;6.53;;
13325;SDS011;6732;51.044;3.746;2022-12-16T11:41:56;9.90;;;6.73;;
13325;SDS011;6732;51.044;3.746;2022-12-16T11:44:47;10.27;;;6.57;;
13325;SDS011;6732;51.044;3.746;2022-12-16T11:47:37;7.07;;;5.40;;
13325;SDS011;6732;51.044;3.746;2022-12-16T11:50:29;8.03;;;5.60;;
13325;SDS011;6732;51.044;3.746;2022-12-16T11:56:11;7.53;;;4.93;;
13325;SDS011;6732;51.044;3.746;2022-12-16T11:59:01;7.93;;;5.17;;
13325;SDS011;6732;51.044;3.746;2022-12-16T12:01:52;10.77;;;5.10;;
13325;SDS011;6732;51.044;3.746;2022-12-16T12:04:41;6.77;;;4.80;;
13325;SDS011;6732;51.044;3.746;2022-12-16T12:07:43;5.53;;;4.87;;
13325;SDS011;6732;51.044;3.746;2022-12-16T12:10:43;8.70;;;5.33;;
13325;SDS011;6732;51.044;3.746;2022-12-16T12:13:49;7.23;;;5.40;;
13325;SDS011;6732;51.044;3.746;2022-12-16T12:23:09;8.43;;;5.43;;
13325;SDS011;6732;51.044;3.746;2022-12-16T12:26:12;9.30;;;5.43;;
13325;SDS011;6732;51.044;3.746;2022-12-16T12:32:26;5.57;;;4.60;;
13325;SDS011;6732;51.044;3.746;2022-12-16T12:38:18;6.37;;;4.30;;
13325;SDS011;6732;51.044;3.746;2022-12-16T12:44:11;7.60;;;3.90;;
13325;SDS011;6732;51.044;3.746;2022-12-16T12:47:17;7.07;;;4.10;;
13325;SDS011;6732;51.044;3.746;2022-12-16T12:55:53;6.53;;;3.73;;
13325;SDS011;6732;51.044;3.746;2022-12-16T12:58:40;4.97;;;3.50;;
13325;SDS011;6732;51.044;3.746;2022-12-16T13:01:27;4.77;;;3.97;;
13325;SDS011;6732;51.044;3.746;2022-12-16T13:04:16;4.97;;;3.60;;
13325;SDS011;6732;51.044;3.746;2022-12-16T13:07:04;5.07;;;3.67;;
13325;SDS011;6732;51.044;3.746;2022-12-16T13:16:00;4.53;;;3.73;;
13325;SDS011;6732;51.044;3.746;2022-12-16T13:18:46;5.40;;;4.20;;
13325;SDS011;6732;51.044;3.746;2022-12-16T13:27:13;6.40;;;3.83;;
13325;SDS011;6732;51.044;3.746;2022-12-16T13:30:21;4.83;;;3.87;;
13325;SDS011;6732;51.044;3.746;2022-12-16T13:33:07;7.77;;;4.23;;
13325;SDS011;6732;51.044;3.746;2022-12-16T13:36:05;8.10;;;4.37;;
13325;SDS011;6732;51.044;3.746;2022-12-16T13:38:50;6.90;;;3.97;;
13325;SDS011;6732;51.044;3.746;2022-12-16T13:47:59;5.90;;;4.07;;
13325;SDS011;6732;51.044;3.746;2022-12-16T13:50:37;5.53;;;3.97;;
13325;SDS011;6732;51.044;3.746;2022-12-16T13:53:30;5.57;;;4.17;;
13325;SDS011;6732;51.044;3.746;2022-12-16T13:56:29;5.43;;;3.90;;
13325;SDS011;6732;51.044;3.746;2022-12-16T13:59:19;4.43;;;3.53;;
13325;SDS011;6732;51.044;3.746;2022-12-16T14:02:50;4.97;;;3.43;;
13325;SDS011;6732;51.044;3.746;2022-12-16T14:05:28;6.03;;;4.03;;
13325;SDS011;6732;51.044;3.746;2022-12-16T14:08:17;5.53;;;3.87;;
13325;SDS011;6732;51.044;3.746;2022-12-16T14:11:03;6.07;;;3.73;;
13325;SDS011;6732;51.044;3.746;2022-12-16T14:20:08;6.50;;;4.10;;
13325;SDS011;6732;51.044;3.746;2022-12-16T14:26:15;5.90;;;4.20;;
13325;SDS011;6732;51.044;3.746;2022-12-16T14:29:00;5.67;;;4.50;;
13325;SDS011;6732;51.044;3.746;2022-12-16T14:31:46;7.03;;;4.43;;
13325;SDS011;6732;51.044;3.746;2022-12-16T14:34:31;4.60;;;4.10;;
13325;SDS011;6732;51.044;3.746;2022-12-16T14:37:22;6.47;;;4.10;;
13325;SDS011;6732;51.044;3.746;2022-12-16T14:40:22;6.17;;;4.70;;
13325;SDS011;6732;51.044;3.746;2022-12-16T14:43:19;5.73;;;4.90;;
13325;SDS011;6732;51.044;3.746;2022-12-16T14:46:06;6.20;;;4.40;;
13325;SDS011;6732;51.044;3.746;2022-12-16T15:01:32;7.40;;;6.30;;
13325;SDS011;6732;51.044;3.746;2022-12-16T15:04:17;8.77;;;6.73;;
13325;SDS011;6732;51.044;3.746;2022-12-16T15:07:03;7.10;;;6.40;;
13325;SDS011;6732;51.044;3.746;2022-12-16T15:09:51;7.27;;;6.50;;
13325;SDS011;6732;51.044;3.746;2022-12-16T15:12:38;7.63;;;6.60;;
13325;SDS011;6732;51.044;3.746;2022-12-16T15:15:46;8.00;;;5.80;;
13325;SDS011;6732;51.044;3.746;2022-12-16T15:18:33;7.10;;;6.40;;
13325;SDS011;6732;51.044;3.746;2022-12-16T15:21:23;6.60;;;5.90;;
13325;SDS011;6732;51.044;3.746;2022-12-16T15:24:08;9.80;;;6.10;;
13325;SDS011;6732;51.044;3.746;2022-12-16T15:27:21;8.37;;;6.13;;
13325;SDS011;6732;51.044;3.746;2022-12-16T15:33:35;7.43;;;6.23;;
13325;SDS011;6732;51.044;3.746;2022-12-16T15:36:29;7.10;;;6.40;;
13325;SDS011;6732;51.044;3.746;2022-12-16T15:39:22;7.37;;;6.30;;
13325;SDS011;6732;51.044;3.746;2022-12-16T15:42:26;8.97;;;6.53;;
13325;SDS011;6732;51.044;3.746;2022-12-16T15:48:28;7.43;;;6.50;;
13325;SDS011;6732;51.044;3.746;2022-12-16T15:54:19;7.63;;;6.70;;
13325;SDS011;6732;51.044;3.746;2022-12-16T16:00:18;8.73;;;6.37;;
13325;SDS011;6732;51.044;3.746;2022-12-16T16:06:27;9.70;;;7.80;;
13325;SDS011;6732;51.044;3.746;2022-12-16T16:09:30;9.23;;;7.63;;
13325;SDS011;6732;51.044;3.746;2022-12-16T16:12:26;10.27;;;7.27;;
13325;SDS011;6732;51.044;3.746;2022-12-16T16:15:12;10.50;;;6.80;;
13325;SDS011;6732;51.044;3.746;2022-12-16T16:18:04;11.30;;;8.67;;
13325;SDS011;6732;51.044;3.746;2022-12-16T16:20:53;13.67;;;9.17;;
13325;SDS011;6732;51.044;3.746;2022-12-16T16:23:37;13.87;;;9.23;;
13325;SDS011;6732;51.044;3.746;2022-12-16T16:26:22;11.40;;;8.60;;
13325;SDS011;6732;51.044;3.746;2022-12-16T16:29:13;12.70;;;8.40;;
13325;SDS011;6732;51.044;3.746;2022-12-16T16:31:57;11.47;;;7.97;;
13325;SDS011;6732;51.044;3.746;2022-12-16T16:34:43;10.27;;;8.10;;
13325;SDS011;6732;51.044;3.746;2022-12-16T16:37:27;9.43;;;7.53;;
13325;SDS011;6732;51.044;3.746;2022-12-16T16:40:15;11.20;;;7.73;;
13325;SDS011;6732;51.044;3.746;2022-12-16T16:43:11;10.87;;;8.20;;
13325;SDS011;6732;51.044;3.746;2022-12-16T16:45:55;8.47;;;7.63;;
13325;SDS011;6732;51.044;3.746;2022-12-16T16:48:39;11.67;;;8.47;;
13325;SDS011;6732;51.044;3.746;2022-12-16T16:51:24;8.93;;;8.00;;
13325;SDS011;6732;51.044;3.746;2022-12-16T16:54:09;11.03;;;7.80;;
13325;SDS011;6732;51.044;3.746;2022-12-16T16:56:53;11.30;;;8.40;;
13325;SDS011;6732;51.044;3.746;2022-12-16T16:59:38;9.50;;;7.93;;
13325;SDS011;6732;51.044;3.746;2022-12-16T17:02:23;12.07;;;8.10;;
13325;SDS011;6732;51.044;3.746;2022-12-16T17:05:09;9.67;;;8.10;;
13325;SDS011;6732;51.044;3.746;2022-12-16T17:07:56;11.10;;;8.73;;
13325;SDS011;6732;51.044;3.746;2022-12-16T17:10:40;12.00;;;8.37;;
13325;SDS011;6732;51.044;3.746;2022-12-16T17:13:25;10.00;;;8.50;;
13325;SDS011;6732;51.044;3.746;2022-12-16T17:16:10;12.70;;;8.73;;
13325;SDS011;6732;51.044;3.746;2022-12-16T17:18:56;13.50;;;9.60;;
13325;SDS011;6732;51.044;3.746;2022-12-16T17:21:40;11.70;;;9.47;;
13325;SDS011;6732;51.044;3.746;2022-12-16T17:24:25;12.30;;;9.57;;
13325;SDS011;6732;51.044;3.746;2022-12-16T17:27:14;12.47;;;9.37;;
13325;SDS011;6732;51.044;3.746;2022-12-16T17:29:59;11.60;;;9.63;;
13325;SDS011;6732;51.044;3.746;2022-12-16T17:32:44;11.93;;;9.33;;
13325;SDS011;6732;51.044;3.746;2022-12-16T17:35:28;13.00;;;8.97;;
13325;SDS011;6732;51.044;3.746;2022-12-16T17:38:13;12.37;;;9.47;;
13325;SDS011;6732;51.044;3.746;2022-12-16T17:40:58;11.83;;;9.53;;
13325;SDS011;6732;51.044;3.746;2022-12-16T17:43:42;15.97;;;10.43;;
13325;SDS011;6732;51.044;3.746;2022-12-16T17:46:27;12.20;;;10.40;;
13325;SDS011;6732;51.044;3.746;2022-12-16T17:49:12;16.13;;;10.50;;
13325;SDS011;6732;51.044;3.746;2022-12-16T17:51:56;14.20;;;10.13;;
13325;SDS011;6732;51.044;3.746;2022-12-16T17:54:48;13.30;;;11.00;;
13325;SDS011;6732;51.044;3.746;2022-12-16T17:57:32;17.17;;;12.60;;
13325;SDS011;6732;51.044;3.746;2022-12-16T18:00:17;16.73;;;12.27;;
13325;SDS011;6732;51.044;3.746;2022-12-16T18:03:01;15.57;;;11.83;;
13325;SDS011;6732;51.044;3.746;2022-12-16T18:05:46;15.47;;;12.17;;
13325;SDS011;6732;51.044;3.746;2022-12-16T18:08:31;17.33;;;13.73;;
13325;SDS011;6732;51.044;3.746;2022-12-16T18:11:15;17.87;;;14.23;;
13325;SDS011;6732;51.044;3.746;2022-12-16T18:14:00;25.23;;;16.20;;
13325;SDS011;6732;51.044;3.746;2022-12-16T18:16:45;23.67;;;17.37;;
13325;SDS011;6732;51.044;3.746;2022-12-16T18:19:29;26.83;;;18.43;;
13325;SDS011;6732;51.044;3.746;2022-12-16T18:22:14;23.67;;;17.40;;
13325;SDS011;6732;51.044;3.746;2022-12-16T18:24:59;23.27;;;17.73;;
13325;SDS011;6732;51.044;3.746;2022-12-16T18:27:43;27.20;;;18.33;;
13325;SDS011;6732;51.044;3.746;2022-12-16T18:30:27;29.70;;;20.23;;
13325;SDS011;6732;51.044;3.746;2022-12-16T18:33:12;29.87;;;20.70;;
13325;SDS011;6732;51.044;3.746;2022-12-16T18:35:57;28.97;;;21.00;;
13325;SDS011;6732;51.044;3.746;2022-12-16T18:38:41;28.23;;;21.53;;